Time;durP1;ratioP1;P1;durP2;ratioP2;P2;SDS_P1;SDS_P2;PMS_P1;PMS_P2;Temp;Humidity;BMP_temperature;BMP_pressure;BME280_temperature;BME280_humidity;BME280_pressure;Samples;Min_cycle;Max_cycle;Signal;HPM_P1;HPM_P2
2024/03/21 00:00:24;;;;;;;;;;;;;;;;;;137252;1272;22611;-84
2024/03/21 00:03:45;;;;;;;;;;;;;;;;;;136854;1272;23002;-84
2024/03/21 00:06:47;;;;;;;;;;;;;;;;;;137008;1272;22529;-86
2024/03/21 00:09:48;;;;;;;;;;;;;;;;;;137470;1272;22525;-84
2024/03/21 00:12:49;;;;;;;;;;;;;;;;;;136704;1272;22537;-85
2024/03/21 00:15:50;;;;;;;;;;;;;;;;;;137130;1272;24251;-84
2024/03/21 00:18:51;;;;;;;;;;;;;;;;;;137264;1272;22892;-84
2024/03/21 00:21:52;;;;;;;;;;;;;;;;;;137316;1272;23086;-83
2024/03/21 00:24:54;;;;;;;;;;;;;;;;;;137202;1272;22551;-84
2024/03/21 00:27:55;;;;;;;;;;;;;;;;;;137604;1272;22545;-82
2024/03/21 00:30:56;;;;;;;;;;;;;;;;;;137127;1272;22595;-83
2024/03/21 00:33:57;;;;;;;;;;;;;;;;;;137154;1272;22704;-82
2024/03/21 00:36:58;;;;;;;;;;;;;;;;;;137657;1272;22563;-84
2024/03/21 00:40:03;;;;;;;;;;;;;;;;;;137059;1272;22510;-83
2024/03/21 00:43:04;;;;;;;;;;;;;;;;;;136981;1272;22519;-83
2024/03/21 00:46:05;;;;;;;;;;;;;;;;;;137499;1272;22513;-84
2024/03/21 00:49:06;;;;;;;;;;;;;;;;;;137273;1272;22545;-83
2024/03/21 00:52:07;;;;;;;;;;;;;;;;;;137086;1272;22504;-84
2024/03/21 00:55:09;;;;;;;;;;;;;;;;;;137206;1272;22515;-85
2024/03/21 00:58:10;;;;;;;;;;;;;;;;;;137339;1272;22552;-85
2024/03/21 01:01:11;;;;;;;;;;;;;;;;;;136869;1269;22594;-84
2024/03/21 01:04:13;;;;;;;;;;;;;;;;;;137132;1272;22520;-83
2024/03/21 01:07:14;;;;;;;;;;;;;;;;;;137651;1272;22499;-83
2024/03/21 01:10:15;;;;;;;;;;;;;;;;;;137096;1272;22517;-83
2024/03/21 01:13:16;;;;;;;;;;;;;;;;;;137025;1272;22550;-83
2024/03/21 01:16:18;;;;;;;;;;;;;;;;;;137620;1272;22513;-83
2024/03/21 01:19:20;;;;;;;;;;;;;;;;;;137118;1257;22654;-84
2024/03/21 01:22:21;;;;;;;;;;;;;;;;;;137030;1272;22566;-83
2024/03/21 01:25:23;;;;;;;;;;;;;;;;;;137524;1272;22579;-83
2024/03/21 01:28:24;;;;;;;;;;;;;;;;;;137305;1272;22521;-83
2024/03/21 01:31:25;;;;;;;;;;;;;;;;;;137253;1272;22498;-83
2024/03/21 01:34:26;;;;;;;;;;;;;;;;;;137367;1272;24243;-82
2024/03/21 01:37:27;;;;;;;;;;;;;;;;;;137484;1272;22524;-82
2024/03/21 01:40:28;;;;;;;;;;;;;;;;;;137235;1272;22530;-83
2024/03/21 01:43:30;;;;;;;;;;;;;;;;;;137181;1272;22875;-83
2024/03/21 01:46:31;;;;;;;;;;;;;;;;;;137732;1272;22520;-83
2024/03/21 01:49:32;;;;;;;;;;;;;;;;;;137184;1272;22504;-83
2024/03/21 01:52:33;;;;;;;;;;;;;;;;;;137086;1272;22564;-83
2024/03/21 01:55:35;;;;;;;;;;;;;;;;;;137636;1272;22523;-84
2024/03/21 01:58:36;;;;;;;;;;;;;;;;;;137279;1272;22568;-83
2024/03/21 02:01:37;;;;;;;;;;;;;;;;;;137017;1272;23011;-83
2024/03/21 02:04:38;;;;;;;;;;;;;;;;;;137400;1272;22530;-83
2024/03/21 02:07:39;;;;;;;;;;;;;;;;;;137426;1272;22503;-83
2024/03/21 02:10:40;;;;;;;;;;;;;;;;;;137109;1272;22501;-84
2024/03/21 02:13:41;;;;;;;;;;;;;;;;;;137178;1272;22533;-83
2024/03/21 02:16:43;;;;;;;;;;;;;;;;;;137602;1272;22500;-83
2024/03/21 02:19:44;;;;;;;;;;;;;;;;;;137038;1272;22509;-83
2024/03/21 02:22:45;;;;;;;;;;;;;;;;;;137314;1272;22515;-81
2024/03/21 02:25:47;;;;;;;;;;;;;;;;;;137450;1272;22505;-83
2024/03/21 02:28:50;;;;;;;;;;;;;;;;;;137327;1272;22520;-81
2024/03/21 02:31:51;;;;;;;;;;;;;;;;;;137368;1272;22505;-81
2024/03/21 02:34:52;;;;;;;;;;;;;;;;;;137478;1260;22526;-81
2024/03/21 02:37:54;;;;;;;;;;;;;;;;;;137375;1272;22538;-82
2024/03/21 02:40:55;;;;;;;;;;;;;;;;;;137037;1272;22498;-82
2024/03/21 02:43:57;;;;;;;;;;;;;;;;;;137306;1272;22527;-82
2024/03/21 02:46:58;;;;;;;;;;;;;;;;;;137471;1272;22501;-82
2024/03/21 02:50:04;;;;;;;;;;;;;;;;;;136909;1272;22566;-82
2024/03/21 02:53:05;;;;;;;;;;;;;;;;;;137089;1272;22530;-83
2024/03/21 02:56:08;;;;;;;;;;;;;;;;;;137709;1272;22519;-82
2024/03/21 02:59:09;;;;;;;;;;;;;;;;;;137008;1272;22496;-82
2024/03/21 03:02:12;;;;;;;;;;;;;;;;;;137055;1272;22492;-82
2024/03/21 03:05:13;;;;;;;;;;;;;;;;;;137582;1272;22532;-82
2024/03/21 03:08:14;;;;;;;;;;;;;;;;;;137083;1272;22533;-83
2024/03/21 03:11:15;;;;;;;;;;;;;;;;;;137172;1272;22541;-83
2024/03/21 03:14:16;;;;;;;;;;;;;;;;;;137240;1272;22516;-84
2024/03/21 03:17:17;;;;;;;;;;;;;;;;;;137354;1272;22590;-83
2024/03/21 03:20:18;;;;;;;;;;;;;;;;;;137083;1272;22549;-83
2024/03/21 03:23:20;;;;;;;;;;;;;;;;;;137135;1272;22516;-83
2024/03/21 03:26:21;;;;;;;;;;;;;;;;;;137585;1272;22523;-83
2024/03/21 03:29:22;;;;;;;;;;;;;;;;;;137119;1272;22520;-83
2024/03/21 03:32:23;;;;;;;;;;;;;;;;;;137101;1272;23009;-82
2024/03/21 03:35:34;;;;;;;;;;;;;;;;;;137762;1272;22967;-83
2024/03/21 03:38:35;;;;;;;;;;;;;;;;;;137113;1272;22547;-84
2024/03/21 03:41:36;;;;;;;;;;;;;;;;;;137105;1272;22506;-82
2024/03/21 03:44:37;;;;;;;;;;;;;;;;;;137464;1272;22522;-83
2024/03/21 03:47:38;;;;;;;;;;;;;;;;;;137378;1272;23021;-82
2024/03/21 03:50:39;;;;;;;;;;;;;;;;;;137104;1272;22487;-83
2024/03/21 03:53:40;;;;;;;;;;;;;;;;;;137142;1272;22541;-85
2024/03/21 03:56:41;;;;;;;;;;;;;;;;;;137622;1272;22507;-84
2024/03/21 03:59:43;;;;;;;;;;;;;;;;;;137060;1272;22516;-83
2024/03/21 04:02:45;;;;;;;;;;;;;;;;;;136720;1272;22544;-83
2024/03/21 04:05:46;;;;;;;;;;;;;;;;;;137559;1272;22528;-83
2024/03/21 04:08:47;;;;;;;;;;;;;;;;;;137082;1272;22509;-82
2024/03/21 04:11:48;;;;;;;;;;;;;;;;;;137014;1272;25189;-82
2024/03/21 04:14:52;;;;;;;;;;;;;;;;;;137735;1272;22983;-82
2024/03/21 04:17:53;;;;;;;;;;;;;;;;;;137476;1272;22550;-82
2024/03/21 04:20:54;;;;;;;;;;;;;;;;;;137072;1272;22506;-82
2024/03/21 04:23:55;;;;;;;;;;;;;;;;;;137524;1272;22521;-82
2024/03/21 04:26:56;;;;;;;;;;;;;;;;;;137261;1272;22525;-81
2024/03/21 04:29:59;;;;;;;;;;;;;;;;;;137052;1272;22537;-81
2024/03/21 04:33:00;;;;;;;;;;;;;;;;;;137707;1272;22478;-82
2024/03/21 04:36:03;;;;;;;;;;;;;;;;;;137696;1272;22828;-82
2024/03/21 04:39:04;;;;;;;;;;;;;;;;;;137195;1272;22834;-82
2024/03/21 04:42:05;;;;;;;;;;;;;;;;;;136898;1272;22570;-82
2024/03/21 04:45:06;;;;;;;;;;;;;;;;;;137698;1272;22378;-80
2024/03/21 04:48:08;;;;;;;;;;;;;;;;;;137715;1272;22533;-82
2024/03/21 04:51:09;;;;;;;;;;;;;;;;;;137683;1272;22538;-81
2024/03/21 04:54:10;;;;;;;;;;;;;;;;;;137724;1272;22267;-82
2024/03/21 04:57:11;;;;;;;;;;;;;;;;;;137315;1271;23024;-81
2024/03/21 05:00:13;;;;;;;;;;;;;;;;;;137222;1272;23061;-85
2024/03/21 05:03:14;;;;;;;;;;;;;;;;;;137511;1272;22518;-81
2024/03/21 05:06:15;;;;;;;;;;;;;;;;;;137413;1272;23033;-81
2024/03/21 05:09:16;;;;;;;;;;;;;;;;;;137694;1272;22329;-78
2024/03/21 05:12:19;;;;;;;;;;;;;;;;;;137715;1272;22334;-80
2024/03/21 05:15:21;;;;;;;;;;;;;;;;;;137684;1272;22842;-83
2024/03/21 05:18:22;;;;;;;;;;;;;;;;;;137703;1272;22344;-79
2024/03/21 05:21:23;;;;;;;;;;;;;;;;;;137655;1272;22335;-81
2024/03/21 05:24:24;;;;;;;;;;;;;;;;;;137675;1272;22325;-80
2024/03/21 05:27:25;;;;;;;;;;;;;;;;;;137635;1272;22370;-82
2024/03/21 05:30:26;;;;;;;;;;;;;;;;;;137665;1272;22270;-82
2024/03/21 05:33:27;;;;;;;;;;;;;;;;;;137653;1272;22569;-84
2024/03/21 05:36:29;;;;;;;;;;;;;;;;;;137566;1272;22939;-83
2024/03/21 05:39:30;;;;;;;;;;;;;;;;;;137302;1272;22609;-84
2024/03/21 05:42:31;;;;;;;;;;;;;;;;;;137702;1272;22320;-85
2024/03/21 05:45:32;;;;;;;;;;;;;;;;;;137595;1272;22496;-83
2024/03/21 05:48:40;;;;;;;;;;;;;;;;;;137699;1272;22748;-81
2024/03/21 05:51:42;;;;;;;;;;;;;;;;;;137740;1272;22346;-81
2024/03/21 05:54:44;;;;;;;;;;;;;;;;;;137443;1272;23001;-82
2024/03/21 05:57:45;;;;;;;;;;;;;;;;;;137685;1272;22459;-83
2024/03/21 06:00:46;;;;;;;;;;;;;;;;;;137604;1272;23005;-82
2024/03/21 06:03:48;;;;;;;;;;;;;;;;;;137267;1272;22553;-82
2024/03/21 06:06:49;;;;;;;;;;;;;;;;;;137253;1272;22503;-82
2024/03/21 06:09:50;;;;;;;;;;;;;;;;;;137576;1272;22546;-81
2024/03/21 06:12:51;;;;;;;;;;;;;;;;;;137432;1272;23444;-81
2024/03/21 06:15:52;;;;;;;;;;;;;;;;;;137712;1272;22383;-80
2024/03/21 06:18:53;;;;;;;;;;;;;;;;;;137703;1272;22316;-79
2024/03/21 06:21:56;;;;;;;;;;;;;;;;;;137620;1272;23167;-81
2024/03/21 06:25:01;;;;;;;;;;;;;;;;;;137680;1272;23157;-80
2024/03/21 06:28:02;;;;;;;;;;;;;;;;;;137722;1272;22879;-81
2024/03/21 06:31:07;;;;;;;;;;;;;;;;;;137681;1272;22869;-83
2024/03/21 06:34:09;;;;;;;;;;;;;;;;;;137149;1272;22505;-82
2024/03/21 06:37:10;;;;;;;;;;;;;;;;;;137678;1272;22355;-78
2024/03/21 06:40:11;;;;;;;;;;;;;;;;;;137632;1272;22628;-81
2024/03/21 06:43:13;;;;;;;;;;;;;;;;;;137050;1269;22545;-81
2024/03/21 06:46:15;;;;;;;;;;;;;;;;;;137027;1271;22485;-80
2024/03/21 06:49:16;;;;;;;;;;;;;;;;;;137713;1272;22811;-81
2024/03/21 06:52:17;;;;;;;;;;;;;;;;;;137688;1272;22315;-81
2024/03/21 06:55:18;;;;;;;;;;;;;;;;;;137640;1272;22804;-81
2024/03/21 06:58:19;;;;;;;;;;;;;;;;;;137673;1272;22277;-81
2024/03/21 07:01:20;;;;;;;;;;;;;;;;;;137622;1272;23094;-81
2024/03/21 07:04:21;;;;;;;;;;;;;;;;;;137649;1272;22276;-81
2024/03/21 07:07:22;;;;;;;;;;;;;;;;;;137655;1272;23180;-80
2024/03/21 07:10:23;;;;;;;;;;;;;;;;;;137641;1272;22340;-81
2024/03/21 07:13:24;;;;;;;;;;;;;;;;;;137650;1272;22393;-78
2024/03/21 07:16:25;;;;;;;;;;;;;;;;;;137621;1272;22404;-80
2024/03/21 07:19:33;;;;;;;;;;;;;;;;;;137567;1272;22374;-81
2024/03/21 07:22:35;;;;;;;;;;;;;;;;;;137635;1272;22366;-80
2024/03/21 07:25:36;;;;;;;;;;;;;;;;;;137549;1272;22605;-80
2024/03/21 07:28:37;;;;;;;;;;;;;;;;;;137713;1272;22321;-80
2024/03/21 07:31:38;;;;;;;;;;;;;;;;;;137376;1272;22480;-79
2024/03/21 07:34:39;;;;;;;;;;;;;;;;;;137659;1272;23167;-81
2024/03/21 07:37:40;;;;;;;;;;;;;;;;;;137636;1272;22537;-80
2024/03/21 07:40:41;;;;;;;;;;;;;;;;;;137150;1272;22516;-79
2024/03/21 07:43:42;;;;;;;;;;;;;;;;;;136944;1272;22524;-81
2024/03/21 07:46:43;;;;;;;;;;;;;;;;;;137667;1272;22257;-80
2024/03/21 07:49:45;;;;;;;;;;;;;;;;;;137703;1263;22306;-80
2024/03/21 07:52:46;;;;;;;;;;;;;;;;;;137685;1272;22336;-79
2024/03/21 07:55:47;;;;;;;;;;;;;;;;;;136810;1272;23014;-80
2024/03/21 07:58:48;;;;;;;;;;;;;;;;;;137557;1272;22514;-81
2024/03/21 08:01:49;;;;;;;;;;;;;;;;;;137647;1272;22347;-81
2024/03/21 08:04:51;;;;;;;;;;;;;;;;;;137389;1257;22548;-83
2024/03/21 08:07:52;;;;;;;;;;;;;;;;;;137682;1272;22768;-80
2024/03/21 08:10:53;;;;;;;;;;;;;;;;;;137693;1272;22924;-81
2024/03/21 08:13:54;;;;;;;;;;;;;;;;;;136933;1268;22504;-82
2024/03/21 08:16:58;;;;;;;;;;;;;;;;;;137606;1272;22608;-83
2024/03/21 08:19:59;;;;;;;;;;;;;;;;;;137233;1272;22916;-82
2024/03/21 08:23:00;;;;;;;;;;;;;;;;;;137654;1272;22322;-83
2024/03/21 08:26:02;;;;;;;;;;;;;;;;;;137666;1272;22318;-81
2024/03/21 08:29:03;;;;;;;;;;;;;;;;;;137467;1272;306259;-82
2024/03/21 08:32:04;;;;;;;;;;;;;;;;;;137246;1272;22519;-83
2024/03/21 08:35:05;;;;;;;;;;;;;;;;;;137640;1272;22561;-82
2024/03/21 08:38:06;;;;;;;;;;;;;;;;;;137601;1272;22283;-81
2024/03/21 08:41:09;;;;;;;;;;;;;;;;;;137624;1272;22352;-81
2024/03/21 08:44:10;;;;;;;;;;;;;;;;;;137682;1272;22937;-81
2024/03/21 08:47:12;;;;;;;;;;;;;;;;;;137565;1266;22583;-80
2024/03/21 08:50:13;;;;;;;;;;;;;;;;;;137654;1272;22714;-79
2024/03/21 08:53:14;;;;;;;;;;;;;;;;;;137670;1263;22320;-81
2024/03/21 08:56:16;;;;;;;;;;;;;;;;;;137607;1260;22328;-81
2024/03/21 08:59:17;;;;;;;;;;;;;;;;;;137405;1272;22497;-81
2024/03/21 09:02:18;;;;;;;;;;;;;;;;;;137595;1272;22283;-80
2024/03/21 09:05:19;;;;;;;;;;;;;;;;;;137608;1272;22363;-80
2024/03/21 09:08:20;;;;;;;;;;;;;;;;;;137374;1272;22515;-82
2024/03/21 09:11:21;;;;;;;;;;;;;;;;;;137620;1272;22317;-82
2024/03/21 09:14:22;;;;;;;;;;;;;;;;;;137584;1272;22911;-81
2024/03/21 09:17:24;;;;;;;;;;;;;;;;;;137633;1272;22860;-83
2024/03/21 09:20:25;;;;;;;;;;;;;;;;;;137617;1261;22315;-81
2024/03/21 09:23:26;;;;;;;;;;;;;;;;;;137616;1266;22332;-79
2024/03/21 09:26:27;;;;;;;;;;;;;;;;;;137616;1272;22696;-80
2024/03/21 09:29:28;;;;;;;;;;;;;;;;;;137643;1272;22291;-80
2024/03/21 09:32:30;;;;;;;;;;;;;;;;;;137455;1272;23527;-80
2024/03/21 09:35:34;;;;;;;;;;;;;;;;;;137112;1272;22506;-80
2024/03/21 09:38:38;;;;;;;;;;;;;;;;;;137069;1272;22581;-80
2024/03/21 09:41:39;;;;;;;;;;;;;;;;;;137690;1272;22294;-80
2024/03/21 09:44:40;;;;;;;;;;;;;;;;;;137619;1272;22424;-80
2024/03/21 09:47:41;;;;;;;;;;;;;;;;;;137649;1272;22381;-79
2024/03/21 09:50:42;;;;;;;;;;;;;;;;;;137700;1272;22359;-80
2024/03/21 09:53:44;;;;;;;;;;;;;;;;;;137685;1272;22312;-80
2024/03/21 09:56:45;;;;;;;;;;;;;;;;;;137682;1272;22348;-80
2024/03/21 09:59:46;;;;;;;;;;;;;;;;;;137684;1272;22486;-81
2024/03/21 10:02:47;;;;;;;;;;;;;;;;;;137489;1272;22514;-80
2024/03/21 10:05:48;;;;;;;;;;;;;;;;;;137048;1272;22511;-78
2024/03/21 10:08:50;;;;;;;;;;;;;;;;;;137704;1272;22411;-79
2024/03/21 10:11:51;;;;;;;;;;;;;;;;;;137687;1272;22345;-80
2024/03/21 10:14:55;;;;;;;;;;;;;;;;;;137708;1272;22356;-79
2024/03/21 10:17:56;;;;;;;;;;;;;;;;;;137709;1272;22359;-79
2024/03/21 10:20:57;;;;;;;;;;;;;;;;;;137665;1272;22289;-79
2024/03/21 10:23:58;;;;;;;;;;;;;;;;;;137714;1263;22331;-79
2024/03/21 10:26:59;;;;;;;;;;;;;;;;;;137657;1269;22290;-79
2024/03/21 10:30:00;;;;;;;;;;;;;;;;;;137688;1272;23141;-79
2024/03/21 10:33:02;;;;;;;;;;;;;;;;;;137646;1272;22308;-80
2024/03/21 10:36:03;;;;;;;;;;;;;;;;;;137022;1272;22971;-80
2024/03/21 10:39:04;;;;;;;;;;;;;;;;;;137083;1272;22529;-81
2024/03/21 10:42:07;;;;;;;;;;;;;;;;;;137740;1272;22335;-81
2024/03/21 10:45:09;;;;;;;;;;;;;;;;;;137707;1272;22369;-80
2024/03/21 10:48:10;;;;;;;;;;;;;;;;;;137680;1272;22407;-80
2024/03/21 10:51:11;;;;;;;;;;;;;;;;;;137627;1272;22490;-80
2024/03/21 10:54:12;;;;;;;;;;;;;;;;;;137647;1272;22279;-80
2024/03/21 10:57:15;;;;;;;;;;;;;;;;;;137659;1272;22356;-78
2024/03/21 11:00:17;;;;;;;;;;;;;;;;;;137612;1270;22291;-80
2024/03/21 11:03:18;;;;;;;;;;;;;;;;;;137679;1272;22372;-78
2024/03/21 11:06:19;;;;;;;;;;;;;;;;;;137659;1272;22284;-81
2024/03/21 11:09:20;;;;;;;;;;;;;;;;;;137659;1272;23017;-80
2024/03/21 11:12:21;;;;;;;;;;;;;;;;;;137664;1272;22328;-81
2024/03/21 11:15:22;;;;;;;;;;;;;;;;;;137531;1272;22508;-82
2024/03/21 11:18:23;;;;;;;;;;;;;;;;;;137656;1272;22258;-82
2024/03/21 11:21:24;;;;;;;;;;;;;;;;;;137669;1272;22333;-82
2024/03/21 11:24:25;;;;;;;;;;;;;;;;;;137663;1272;22417;-82
2024/03/21 11:27:28;;;;;;;;;;;;;;;;;;137729;1272;22277;-82
2024/03/21 11:30:29;;;;;;;;;;;;;;;;;;137699;1272;22335;-84
2024/03/21 11:33:30;;;;;;;;;;;;;;;;;;137581;1272;22653;-82
2024/03/21 11:36:31;;;;;;;;;;;;;;;;;;137699;1272;22284;-82
2024/03/21 11:39:35;;;;;;;;;;;;;;;;;;137699;1272;22319;-80
2024/03/21 11:42:36;;;;;;;;;;;;;;;;;;137738;1272;22368;-80
2024/03/21 11:45:37;;;;;;;;;;;;;;;;;;137688;1272;22435;-78
2024/03/21 11:48:38;;;;;;;;;;;;;;;;;;136957;1272;22488;-81
2024/03/21 11:51:39;;;;;;;;;;;;;;;;;;137662;1272;22788;-80
2024/03/21 11:54:41;;;;;;;;;;;;;;;;;;137757;1272;22695;-82
2024/03/21 11:57:42;;;;;;;;;;;;;;;;;;137527;1272;23001;-81
2024/03/21 12:00:43;;;;;;;;;;;;;;;;;;137613;1272;22540;-80
2024/03/21 12:03:44;;;;;;;;;;;;;;;;;;137431;1272;23029;-82
2024/03/21 12:06:46;;;;;;;;;;;;;;;;;;137204;1272;22496;-83
2024/03/21 12:09:47;;;;;;;;;;;;;;;;;;137696;1272;22321;-80
2024/03/21 12:12:48;;;;;;;;;;;;;;;;;;137478;1272;22538;-80
2024/03/21 12:15:49;;;;;;;;;;;;;;;;;;137721;1272;22394;-80
2024/03/21 12:18:50;;;;;;;;;;;;;;;;;;137725;1272;22401;-79
2024/03/21 12:21:51;;;;;;;;;;;;;;;;;;137654;1272;22290;-78
2024/03/21 12:24:53;;;;;;;;;;;;;;;;;;137664;1272;22376;-80
2024/03/21 12:27:55;;;;;;;;;;;;;;;;;;137648;1272;23326;-77
2024/03/21 12:30:57;;;;;;;;;;;;;;;;;;137667;1272;22316;-79
2024/03/21 12:34:00;;;;;;;;;;;;;;;;;;137690;1272;22318;-79
2024/03/21 12:37:01;;;;;;;;;;;;;;;;;;137038;1272;22520;-79
2024/03/21 12:40:03;;;;;;;;;;;;;;;;;;137673;1272;22337;-79
2024/03/21 12:43:06;;;;;;;;;;;;;;;;;;137686;1269;22492;-79
2024/03/21 12:46:07;;;;;;;;;;;;;;;;;;137686;1272;22781;-79
2024/03/21 12:49:08;;;;;;;;;;;;;;;;;;137658;1272;22411;-80
2024/03/21 12:52:12;;;;;;;;;;;;;;;;;;137710;1272;22415;-80
2024/03/21 12:55:13;;;;;;;;;;;;;;;;;;137687;1272;22370;-79
2024/03/21 12:58:14;;;;;;;;;;;;;;;;;;137659;1272;22378;-80
2024/03/21 13:01:16;;;;;;;;;;;;;;;;;;137661;1272;22366;-79
2024/03/21 13:04:17;;;;;;;;;;;;;;;;;;136715;1272;22537;-79
2024/03/21 13:07:18;;;;;;;;;;;;;;;;;;137652;1272;23059;-78
2024/03/21 13:10:19;;;;;;;;;;;;;;;;;;137670;1272;22250;-78
2024/03/21 13:13:21;;;;;;;;;;;;;;;;;;137664;1272;22414;-78
2024/03/21 13:16:22;;;;;;;;;;;;;;;;;;137689;1272;22965;-79
2024/03/21 13:19:25;;;;;;;;;;;;;;;;;;137679;1272;22295;-79
2024/03/21 13:22:26;;;;;;;;;;;;;;;;;;136985;1272;22548;-79
2024/03/21 13:25:30;;;;;;;;;;;;;;;;;;136733;1272;22993;-79
2024/03/21 13:28:31;;;;;;;;;;;;;;;;;;137692;1272;22380;-78
2024/03/21 13:31:33;;;;;;;;;;;;;;;;;;137683;1272;22355;-78
2024/03/21 13:34:36;;;;;;;;;;;;;;;;;;137723;1272;22448;-79
2024/03/21 13:37:37;;;;;;;;;;;;;;;;;;137686;1272;22318;-78
2024/03/21 13:40:38;;;;;;;;;;;;;;;;;;137724;1272;22976;-79
2024/03/21 13:43:39;;;;;;;;;;;;;;;;;;137689;1272;22385;-79
2024/03/21 13:46:40;;;;;;;;;;;;;;;;;;137721;1272;22358;-79
2024/03/21 13:49:42;;;;;;;;;;;;;;;;;;137694;1272;23248;-79
2024/03/21 13:52:43;;;;;;;;;;;;;;;;;;137694;1272;22338;-78
2024/03/21 13:55:44;;;;;;;;;;;;;;;;;;137713;1269;22319;-79
2024/03/21 13:58:46;;;;;;;;;;;;;;;;;;137665;1272;22341;-78
2024/03/21 14:01:47;;;;;;;;;;;;;;;;;;137730;1272;22305;-79
2024/03/21 14:04:48;;;;;;;;;;;;;;;;;;137667;1272;23103;-80
2024/03/21 14:07:49;;;;;;;;;;;;;;;;;;137736;1272;22724;-79
2024/03/21 14:10:50;;;;;;;;;;;;;;;;;;137699;1272;22364;-79
2024/03/21 14:13:52;;;;;;;;;;;;;;;;;;137823;1272;22373;-79
2024/03/21 14:16:53;;;;;;;;;;;;;;;;;;137747;1272;22443;-79
2024/03/21 14:19:54;;;;;;;;;;;;;;;;;;137740;1272;22338;-80
2024/03/21 14:22:55;;;;;;;;;;;;;;;;;;137711;1272;22307;-81
2024/03/21 14:25:57;;;;;;;;;;;;;;;;;;137686;1272;22365;-81
2024/03/21 14:28:58;;;;;;;;;;;;;;;;;;137686;1272;22831;-80
2024/03/21 14:31:59;;;;;;;;;;;;;;;;;;137746;1272;22758;-80
2024/03/21 14:35:04;;;;;;;;;;;;;;;;;;137713;1272;22305;-80
2024/03/21 14:38:06;;;;;;;;;;;;;;;;;;137678;1272;22712;-79
2024/03/21 14:41:07;;;;;;;;;;;;;;;;;;137666;1272;22254;-80
2024/03/21 14:44:10;;;;;;;;;;;;;;;;;;136924;1272;22542;-80
2024/03/21 14:47:11;;;;;;;;;;;;;;;;;;137686;1272;22318;-79
2024/03/21 14:50:12;;;;;;;;;;;;;;;;;;137728;1272;22293;-80
2024/03/21 14:53:14;;;;;;;;;;;;;;;;;;137434;1272;22550;-80
2024/03/21 14:56:16;;;;;;;;;;;;;;;;;;137782;1272;22350;-79
2024/03/21 14:59:18;;;;;;;;;;;;;;;;;;137674;1272;22302;-79
2024/03/21 15:02:19;;;;;;;;;;;;;;;;;;136991;1272;22515;-80
2024/03/21 15:05:20;;;;;;;;;;;;;;;;;;136970;1272;22533;-80
2024/03/21 15:08:21;;;;;;;;;;;;;;;;;;137590;1272;22521;-80
2024/03/21 15:11:22;;;;;;;;;;;;;;;;;;137097;1272;22518;-80
2024/03/21 15:14:23;;;;;;;;;;;;;;;;;;137006;1272;22517;-80
2024/03/21 15:17:25;;;;;;;;;;;;;;;;;;137668;1272;22918;-79
2024/03/21 15:20:26;;;;;;;;;;;;;;;;;;137238;1272;22509;-80
2024/03/21 15:23:27;;;;;;;;;;;;;;;;;;137658;1272;22303;-80
2024/03/21 15:26:29;;;;;;;;;;;;;;;;;;137157;1272;22503;-79
2024/03/21 15:29:31;;;;;;;;;;;;;;;;;;137596;1272;22558;-79
2024/03/21 15:32:32;;;;;;;;;;;;;;;;;;137021;1272;22917;-80
2024/03/21 15:35:36;;;;;;;;;;;;;;;;;;137080;1272;22532;-80
2024/03/21 15:38:37;;;;;;;;;;;;;;;;;;137712;1272;22385;-79
2024/03/21 15:41:38;;;;;;;;;;;;;;;;;;137708;1272;22327;-79
2024/03/21 15:44:39;;;;;;;;;;;;;;;;;;137206;1272;22561;-80
2024/03/21 15:47:40;;;;;;;;;;;;;;;;;;137580;1272;22523;-79
2024/03/21 15:50:41;;;;;;;;;;;;;;;;;;137078;1272;22573;-79
2024/03/21 15:53:43;;;;;;;;;;;;;;;;;;136871;1272;22571;-80
2024/03/21 15:56:44;;;;;;;;;;;;;;;;;;137294;1272;22519;-79
2024/03/21 15:59:45;;;;;;;;;;;;;;;;;;137319;1272;22958;-80
2024/03/21 16:02:46;;;;;;;;;;;;;;;;;;137093;1272;22798;-80
2024/03/21 16:05:48;;;;;;;;;;;;;;;;;;137211;1272;22440;-79
2024/03/21 16:08:49;;;;;;;;;;;;;;;;;;137529;1272;22519;-79
2024/03/21 16:11:50;;;;;;;;;;;;;;;;;;137171;1265;22531;-80
2024/03/21 16:14:51;;;;;;;;;;;;;;;;;;137075;1272;22539;-79
2024/03/21 16:17:52;;;;;;;;;;;;;;;;;;137770;1272;22300;-80
2024/03/21 16:20:53;;;;;;;;;;;;;;;;;;136996;1272;22846;-80
2024/03/21 16:23:57;;;;;;;;;;;;;;;;;;137068;1272;22930;-81
2024/03/21 16:26:58;;;;;;;;;;;;;;;;;;137480;1272;22534;-79
2024/03/21 16:30:00;;;;;;;;;;;;;;;;;;137111;1272;22543;-80
2024/03/21 16:33:01;;;;;;;;;;;;;;;;;;137016;1272;22524;-79
2024/03/21 16:36:02;;;;;;;;;;;;;;;;;;137476;1272;25373;-77
2024/03/21 16:39:04;;;;;;;;;;;;;;;;;;137394;1272;23285;-77
2024/03/21 16:42:05;;;;;;;;;;;;;;;;;;137714;1272;22343;-78
2024/03/21 16:45:06;;;;;;;;;;;;;;;;;;137661;1272;22397;-78
2024/03/21 16:48:07;;;;;;;;;;;;;;;;;;137688;1272;22283;-78
2024/03/21 16:51:08;;;;;;;;;;;;;;;;;;136967;1272;22617;-78
2024/03/21 16:54:09;;;;;;;;;;;;;;;;;;136797;1272;22538;-79
2024/03/21 16:57:10;;;;;;;;;;;;;;;;;;137529;1272;22518;-79
2024/03/21 17:00:12;;;;;;;;;;;;;;;;;;136992;1272;22556;-79
2024/03/21 17:03:13;;;;;;;;;;;;;;;;;;136783;1272;23174;-80
2024/03/21 17:06:15;;;;;;;;;;;;;;;;;;137690;1269;22460;-78
2024/03/21 17:09:17;;;;;;;;;;;;;;;;;;137269;1272;22502;-79
2024/03/21 17:12:18;;;;;;;;;;;;;;;;;;136923;1272;22511;-77
2024/03/21 17:15:20;;;;;;;;;;;;;;;;;;137104;1272;22528;-77
2024/03/21 17:18:21;;;;;;;;;;;;;;;;;;137589;1272;22604;-80
2024/03/21 17:21:22;;;;;;;;;;;;;;;;;;137035;1272;22575;-77
2024/03/21 17:24:24;;;;;;;;;;;;;;;;;;136986;1272;22634;-77
2024/03/21 17:27:25;;;;;;;;;;;;;;;;;;137706;1272;22794;-78
2024/03/21 17:30:26;;;;;;;;;;;;;;;;;;136941;1272;22571;-78
2024/03/21 17:33:27;;;;;;;;;;;;;;;;;;136933;1264;22915;-78
2024/03/21 17:36:30;;;;;;;;;;;;;;;;;;137503;1272;22539;-80
2024/03/21 17:39:32;;;;;;;;;;;;;;;;;;137142;1272;22521;-80
2024/03/21 17:42:33;;;;;;;;;;;;;;;;;;137724;1272;22350;-80
2024/03/21 17:45:34;;;;;;;;;;;;;;;;;;137711;1272;22368;-79
2024/03/21 17:48:35;;;;;;;;;;;;;;;;;;137711;1272;22392;-79
2024/03/21 17:51:36;;;;;;;;;;;;;;;;;;136982;1272;22499;-79
2024/03/21 17:54:38;;;;;;;;;;;;;;;;;;136969;1272;22464;-78
2024/03/21 17:57:39;;;;;;;;;;;;;;;;;;137706;1272;22319;-79
2024/03/21 18:00:40;;;;;;;;;;;;;;;;;;137047;1272;22509;-79
2024/03/21 18:03:41;;;;;;;;;;;;;;;;;;137708;1272;22315;-78
2024/03/21 18:06:42;;;;;;;;;;;;;;;;;;137665;1272;22721;-79
2024/03/21 18:09:46;;;;;;;;;;;;;;;;;;137671;1272;22286;-78
2024/03/21 18:12:47;;;;;;;;;;;;;;;;;;137391;1272;22524;-84
2024/03/21 18:15:48;;;;;;;;;;;;;;;;;;137758;1272;22343;-81
2024/03/21 18:18:49;;;;;;;;;;;;;;;;;;137726;1272;22289;-81
2024/03/21 18:21:51;;;;;;;;;;;;;;;;;;137407;1272;22854;-81
2024/03/21 18:24:52;;;;;;;;;;;;;;;;;;137209;1272;22536;-81
2024/03/21 18:27:53;;;;;;;;;;;;;;;;;;137614;1272;22508;-81
2024/03/21 18:30:54;;;;;;;;;;;;;;;;;;136923;1272;22718;-81
2024/03/21 18:33:56;;;;;;;;;;;;;;;;;;137758;1272;22384;-79
2024/03/21 18:36:57;;;;;;;;;;;;;;;;;;137731;1272;22332;-80
2024/03/21 18:39:58;;;;;;;;;;;;;;;;;;137755;1272;22786;-80
2024/03/21 18:42:59;;;;;;;;;;;;;;;;;;137756;1272;22435;-81
2024/03/21 18:46:01;;;;;;;;;;;;;;;;;;137744;1272;22427;-81
2024/03/21 18:49:02;;;;;;;;;;;;;;;;;;137238;1272;22512;-80
2024/03/21 18:52:03;;;;;;;;;;;;;;;;;;137031;1272;22477;-81
2024/03/21 18:55:04;;;;;;;;;;;;;;;;;;137699;1272;22544;-82
2024/03/21 18:58:06;;;;;;;;;;;;;;;;;;137526;1272;22520;-80
2024/03/21 19:01:07;;;;;;;;;;;;;;;;;;137752;1272;22845;-81
2024/03/21 19:04:08;;;;;;;;;;;;;;;;;;137030;1272;25849;-79
2024/03/21 19:07:12;;;;;;;;;;;;;;;;;;137617;1272;22569;-80
2024/03/21 19:10:13;;;;;;;;;;;;;;;;;;136911;1272;22595;-80
2024/03/21 19:13:16;;;;;;;;;;;;;;;;;;137051;1272;22546;-80
2024/03/21 19:16:19;;;;;;;;;;;;;;;;;;137700;1272;22510;-79
2024/03/21 19:19:20;;;;;;;;;;;;;;;;;;137640;1272;23005;-77
2024/03/21 19:22:24;;;;;;;;;;;;;;;;;;137696;1272;22368;-81
2024/03/21 19:25:25;;;;;;;;;;;;;;;;;;137619;1272;22528;-81
2024/03/21 19:28:26;;;;;;;;;;;;;;;;;;137244;1272;22497;-81
2024/03/21 19:31:30;;;;;;;;;;;;;;;;;;137468;1272;22509;-82
2024/03/21 19:34:33;;;;;;;;;;;;;;;;;;137196;1272;22515;-81
2024/03/21 19:37:34;;;;;;;;;;;;;;;;;;137633;1260;22541;-80
2024/03/21 19:40:36;;;;;;;;;;;;;;;;;;136962;1272;22971;-81
2024/03/21 19:43:37;;;;;;;;;;;;;;;;;;137044;1272;23054;-82
2024/03/21 19:46:41;;;;;;;;;;;;;;;;;;137645;1257;23053;-81
2024/03/21 19:49:42;;;;;;;;;;;;;;;;;;137074;1272;22641;-81
2024/03/21 19:52:44;;;;;;;;;;;;;;;;;;136977;1272;23099;-81
2024/03/21 19:55:45;;;;;;;;;;;;;;;;;;137482;1272;25402;-82
2024/03/21 19:58:46;;;;;;;;;;;;;;;;;;137208;1272;22544;-82
2024/03/21 20:01:48;;;;;;;;;;;;;;;;;;137032;1272;22506;-81
2024/03/21 20:04:49;;;;;;;;;;;;;;;;;;137442;1272;23072;-81
2024/03/21 20:07:50;;;;;;;;;;;;;;;;;;137496;1272;22511;-82
2024/03/21 20:10:51;;;;;;;;;;;;;;;;;;137054;1272;23113;-82
2024/03/21 20:13:52;;;;;;;;;;;;;;;;;;137468;1272;23177;-81
2024/03/21 20:16:53;;;;;;;;;;;;;;;;;;137587;1272;22487;-82